45NY weather

Turning Stone Resort & Casino Heliport
Verona, New York, United States

Public forecast

Using degrees Fahrenheit for public forecast. Weather courtesy of forecast.io.

Closest aviation weather report (METAR) to Turning Stone Resort & Casino Heliport

Closest report is Griffiss International Airport, 11.0 nm (20.4 km) NE. Retrieved 2019/10/22 17:53 UTC (45 minutes ago):

KRME 221753Z 11010G19KT 10SM -RA OVC028 14/10 A2987 RMK AO2 RAB19 SLP114 P0000 60000 T01390100 10139 20117 58027

Closest aviation forecast (TAF) to Turning Stone Resort & Casino Heliport

Closest forecast is Griffiss International Airport, 11.0 nm (20.4 km) NE. Retrieved 2019/10/22 18:24 UTC (14 minutes ago):

TAF KRME 221723Z 2218/2318 12009KT P6SM -SHRA OVC025 FM222100 14009KT 3SM -RA OVC015 FM230000 17005KT 5SM -RA OVC006 FM230500 20004KT P6SM BKN015 FM231400 26010G20KT P6SM SCT050